Airfield :
LOGIN :

Register | Disclaimer

   EN    FR    IT 

 










Legend :    VFR   Marginal VFR   IFR   Intensive IFR   Very Intensive IFR
Visi :
Ceiling :
>= 8 km
>= 3000ft
5 to 8 km
1000 to 3000 ft
1500m to 5 km
500 to 1000 ft
800 to 1500m
200 to 500 ft
< 800m
< 200 ft
Symbols :   Thunderstorms  Fog  Heavy snow  Heavy precipitations  Wind > 20 kt
SIGMETs :     Misc.  Thunderstorms  Icing  Turbulence  Mountain Waves  Volcanic Ashes






- Airport Elevation : 408 ft
- IATA code : KWG


UKDR - Lozuvatka

CURRENT METAR :
  • 300730Z 30002MPS 270V330 CAVOK 11/06 Q1004 R36/09//70 NOSIG

EXPIRED METARs :
  • 300700Z 29002MPS CAVOK 10/07 Q1004 R36/09//70 NOSIG
  • 300630Z 29002MPS CAVOK 09/06 Q1003 R36/09//70 NOSIG
  • 300600Z 29001MPS CAVOK 08/06 Q1003 R36/09//70 NOSIG
  • 300530Z 29002MPS CAVOK 08/06 Q1003 R36/09//70 NOSIG
  • 300500Z 30001MPS CAVOK 08/06 Q1003 R36/09//70 NOSIG

TAF TAF UKDR
Valid from the 30 at 06:00 until the 31 at 06:00 UTC


300501Z 3006/3106 33005MPS 9999 BKN020 TX14/3012Z TN02/3103Z
TEMPO 3012/3018 33007G12MPS 2100 -SHRA BKN007 BKN015CB



MET'MAP, your aeronautical weather chart ! - Copyright ORBIFLY December 2007 - Disclaimer

ORBIFLY MET'MAP TEAM :

Programming & Development : Alexandra Zaïnal
Concept & original design : Baudouin d'Aumeries
Assistance for programming : Marc-Olivier Méhu
Technical & hardware support : Manuel Goepfert

Contact : metmap@orbifly.com




SOURCES & CREDITS :

   NOAA